Time;durP1;ratioP1;P1;durP2;ratioP2;P2;SDS_P1;SDS_P2;PMS_P1;PMS_P2;Temp;Humidity;BMP_temperature;BMP_pressure;BME280_temperature;BME280_humidity;BME280_pressure;Samples;Min_cycle;Max_cycle;Signal;HPM_P1;HPM_P2
2021/09/02 00:02:20;;;;;;;5.53;2.70;;;;;;;20.59;60.17;102741.03;5034546;28;20096;-62
2021/09/02 00:04:46;;;;;;;4.53;2.60;;;;;;;20.59;60.05;102741.03;5034452;28;20049;-62
2021/09/02 00:07:11;;;;;;;5.00;2.60;;;;;;;20.57;60.06;102729.69;5033528;28;20053;-62
2021/09/02 00:09:36;;;;;;;5.00;2.60;;;;;;;20.59;60.07;102734.88;5034177;28;20140;-61
2021/09/02 00:12:05;;;;;;;7.28;2.60;;;;;;;20.56;60.07;102727.13;5033900;28;20278;-61
2021/09/02 00:14:30;;;;;;;5.95;2.70;;;;;;;20.58;59.90;102734.00;5033140;28;20080;-62
2021/09/02 00:16:56;;;;;;;6.25;2.67;;;;;;;20.58;60.07;102733.16;5033941;28;20101;-62
2021/09/02 00:19:24;;;;;;;4.80;2.30;;;;;;;20.58;59.90;102731.34;5033947;28;20495;-61
2021/09/02 00:21:49;;;;;;;5.82;2.80;;;;;;;20.57;60.05;102734.97;5032903;28;20490;-63
2021/09/02 00:24:17;;;;;;;5.68;2.83;;;;;;;20.58;60.08;102733.16;5034191;28;20030;-63
2021/09/02 00:26:48;;;;;;;5.53;2.75;;;;;;;20.58;60.10;102733.16;5033798;28;20021;-63
2021/09/02 00:29:13;;;;;;;5.75;2.55;;;;;;;20.57;59.95;102732.31;5033274;28;20033;-62
2021/09/02 00:31:39;;;;;;;5.82;3.50;;;;;;;20.57;60.11;102731.47;5033997;28;20025;-64
2021/09/02 00:34:04;;;;;;;5.18;2.83;;;;;;;20.57;60.11;102723.50;5033647;28;20527;-62
2021/09/02 00:36:29;;;;;;;6.20;2.72;;;;;;;20.56;59.96;102716.53;5033140;28;20029;-62
2021/09/02 00:38:55;;;;;;;6.55;2.75;;;;;;;20.57;60.08;102718.22;5033508;28;20048;-62
2021/09/02 00:41:20;;;;;;;6.55;3.45;;;;;;;20.54;59.88;102713.97;5032840;28;20539;-62
2021/09/02 00:43:45;;;;;;;4.47;2.50;;;;;;;20.51;60.02;102705.38;5033455;28;20049;-62
2021/09/02 00:46:15;;;;;;;7.30;3.17;;;;;;;20.52;60.02;102715.00;5033377;28;20018;-62
2021/09/02 00:48:42;;;;;;;5.28;2.80;;;;;;;20.55;60.07;102713.00;5032755;28;20152;-62
2021/09/02 00:51:08;;;;;;;4.97;2.60;;;;;;;20.55;60.11;102720.13;5033228;28;20059;-62
2021/09/02 00:53:33;;;;;;;4.85;2.35;;;;;;;20.55;59.87;102714.81;5033304;28;20048;-62
2021/09/02 00:55:59;;;;;;;5.18;2.83;;;;;;;20.54;59.83;102721.91;5032286;28;20036;-62
2021/09/02 00:58:25;;;;;;;6.68;2.40;;;;;;;20.55;59.85;102714.81;5033480;28;20025;-62
2021/09/02 01:00:50;;;;;;;4.40;2.47;;;;;;;20.54;59.81;102715.78;5032980;28;20020;-62
2021/09/02 01:03:20;;;;;;;5.07;2.70;;;;;;;20.54;59.85;102713.13;5032482;28;20025;-62
2021/09/02 01:05:47;;;;;;;5.85;3.20;;;;;;;20.53;59.95;102712.25;5033208;28;20025;-62
2021/09/02 01:08:14;;;;;;;7.13;2.95;;;;;;;20.53;59.96;102711.41;5033017;28;20030;-62
2021/09/02 01:10:41;;;;;;;5.05;2.55;;;;;;;20.53;59.85;102720.22;5032343;28;20477;-62
2021/09/02 01:13:06;;;;;;;4.97;2.55;;;;;;;20.48;59.91;102706.41;5032917;28;20068;-61
2021/09/02 01:15:31;;;;;;;4.55;2.60;;;;;;;20.50;60.02;102717.75;5033155;28;20060;-62
2021/09/02 01:17:59;;;;;;;5.32;2.78;;;;;;;20.52;59.78;102721.19;5032079;28;20029;-62
2021/09/02 01:20:29;;;;;;;5.22;2.70;;;;;;;20.51;59.91;102721.28;5032897;28;20022;-61
2021/09/02 01:22:57;;;;;;;5.47;2.83;;;;;;;20.52;59.78;102720.31;5032567;28;20032;-61
2021/09/02 01:25:25;;;;;;;5.20;2.58;;;;;;;20.44;59.88;102710.19;5032065;28;20083;-62
2021/09/02 01:27:55;;;;;;;5.72;2.72;;;;;;;20.42;59.84;102704.97;5032548;28;20482;-62
2021/09/02 01:30:24;;;;;;;5.75;3.35;;;;;;;20.49;59.76;102718.72;5032701;28;20036;-62
2021/09/02 01:32:51;;;;;;;5.90;2.92;;;;;;;20.51;59.70;102721.28;5032063;28;20097;-62
2021/09/02 01:35:19;;;;;;;5.80;3.05;;;;;;;20.47;59.61;102716.16;5032407;28;20513;-62
2021/09/02 01:37:47;;;;;;;4.70;2.50;;;;;;;20.50;59.86;102714.25;5031789;28;20037;-62
2021/09/02 01:40:21;;;;;;;5.78;2.70;;;;;;;20.50;59.84;102723.03;5032791;28;20106;-62
2021/09/02 01:42:47;;;;;;;;;;;;;;;20.49;60.00;102716.06;5033164;28;20025;-62
2021/09/02 01:45:14;;;;;;;5.82;2.85;;;;;;;20.50;59.83;102723.03;5031973;28;19909;-62
2021/09/02 01:47:40;;;;;;;5.05;2.80;;;;;;;20.47;59.78;102715.28;5032403;28;20108;-62
2021/09/02 01:50:13;;;;;;;6.05;2.83;;;;;;;20.48;59.92;102717.00;5032038;28;20128;-61
2021/09/02 01:52:39;;;;;;;5.55;2.90;;;;;;;20.48;59.91;102717.00;5031639;28;20091;-62
2021/09/02 01:55:06;;;;;;;7.15;3.05;;;;;;;20.45;59.78;102718.03;5032089;28;20029;-62
2021/09/02 01:57:35;;;;;;;6.20;3.22;;;;;;;20.46;59.92;102714.44;5031825;28;20021;-61
2021/09/02 02:00:00;;;;;;;6.03;3.22;;;;;;;20.47;59.90;102716.16;5031208;28;20068;-62
2021/09/02 02:02:25;;;;;;;6.47;3.00;;;;;;;20.47;59.88;102713.50;5032273;28;20487;-61
2021/09/02 02:04:50;;;;;;;5.53;3.00;;;;;;;20.44;59.78;102705.75;5031758;28;20021;-62
2021/09/02 02:07:16;;;;;;;5.38;3.05;;;;;;;20.47;59.91;102707.34;5031598;28;20281;-62
2021/09/02 02:09:44;;;;;;;5.28;2.90;;;;;;;20.47;59.86;102712.63;5032367;28;20057;-62
2021/09/02 02:12:10;;;;;;;6.75;3.25;;;;;;;20.46;59.86;102709.16;5032001;28;20207;-63
2021/09/02 02:14:36;;;;;;;5.90;3.17;;;;;;;20.45;59.79;102707.44;5031488;28;20555;-61
2021/09/02 02:17:01;;;;;;;5.40;3.03;;;;;;;20.44;59.92;102705.75;5031959;28;20029;-62
2021/09/02 02:19:27;;;;;;;6.03;3.15;;;;;;;20.46;59.85;102710.97;5032052;28;20025;-62
2021/09/02 02:21:52;;;;;;;6.57;3.35;;;;;;;20.46;60.03;102711.78;5031260;28;20045;-62
2021/09/02 02:24:17;;;;;;;6.45;3.28;;;;;;;20.45;59.93;102710.09;5032206;28;20018;-63
2021/09/02 02:26:43;;;;;;;5.55;3.20;;;;;;;20.44;59.99;102705.75;5031224;28;20026;-63
2021/09/02 02:29:11;;;;;;;5.03;2.97;;;;;;;20.38;59.86;102690.25;5031549;28;20057;-62
2021/09/02 02:31:37;;;;;;;5.13;2.80;;;;;;;20.43;59.93;102698.75;5032039;28;20539;-63
2021/09/02 02:34:02;;;;;;;6.93;3.22;;;;;;;20.44;60.04;102708.41;5030802;28;20223;-63
2021/09/02 02:36:27;;;;;;;5.60;3.10;;;;;;;20.45;59.98;102696.00;5032058;28;20053;-62
2021/09/02 02:38:56;;;;;;;5.60;3.13;;;;;;;20.45;59.87;102702.13;5031999;28;20113;-62
2021/09/02 02:41:21;;;;;;;7.10;3.55;;;;;;;20.45;59.92;102698.66;5031118;28;20432;-62
2021/09/02 02:43:47;;;;;;;6.00;3.17;;;;;;;20.45;60.07;102706.59;5032004;28;20037;-62
2021/09/02 02:46:12;;;;;;;5.93;3.05;;;;;;;20.44;59.86;102697.81;5031873;28;20021;-61
2021/09/02 02:48:37;;;;;;;6.00;3.50;;;;;;;20.44;59.86;102702.22;5030972;28;20021;-62
2021/09/02 02:51:03;;;;;;;7.15;3.80;;;;;;;20.44;59.92;102699.59;5031701;28;20079;-62
2021/09/02 02:53:31;;;;;;;6.95;3.40;;;;;;;20.42;59.88;102698.84;5031712;28;20041;-62
2021/09/02 02:55:57;;;;;;;7.40;3.33;;;;;;;20.44;59.87;102691.63;5030652;28;20470;-61
2021/09/02 02:58:22;;;;;;;5.68;3.08;;;;;;;20.42;59.84;102691.72;5031487;28;20044;-62
2021/09/02 03:00:47;;;;;;;6.60;3.33;;;;;;;20.43;59.71;102695.25;5031572;28;20052;-62
2021/09/02 03:03:15;;;;;;;5.82;3.30;;;;;;;20.42;60.00;102691.72;5030808;28;20029;-62
2021/09/02 03:05:41;;;;;;;5.82;3.40;;;;;;;20.40;59.87;102691.00;5031596;28;20489;-62
2021/09/02 03:08:12;;;;;;;6.13;3.28;;;;;;;20.40;59.85;102691.00;5033784;28;20032;-62
2021/09/02 03:10:40;;;;;;;6.38;3.33;;;;;;;20.43;59.83;102697.91;5034641;28;20040;-61
2021/09/02 03:13:05;;;;;;;6.72;3.33;;;;;;;20.41;59.87;102690.06;5035270;28;20113;-62
2021/09/02 03:15:32;;;;;;;4.95;3.08;;;;;;;20.42;59.83;102693.53;5034873;28;20071;-62
2021/09/02 03:17:57;;;;;;;5.85;3.15;;;;;;;20.41;59.80;102690.06;5034286;28;20033;-61
2021/09/02 03:20:23;;;;;;;5.22;3.00;;;;;;;20.41;59.81;102690.06;5035311;28;20539;-62
2021/09/02 03:22:48;;;;;;;7.15;3.65;;;;;;;20.41;60.11;102694.47;5034968;28;20021;-62
2021/09/02 03:25:14;;;;;;;5.07;3.10;;;;;;;20.41;59.86;102690.06;5034450;28;20030;-62
2021/09/02 03:27:40;;;;;;;6.70;3.47;;;;;;;20.40;59.62;102688.34;5035155;28;20129;-62
2021/09/02 03:30:07;;;;;;;6.38;3.60;;;;;;;20.40;59.85;102696.28;5033981;28;20030;-62
2021/09/02 03:32:33;;;;;;;6.38;3.25;;;;;;;20.40;59.85;102698.09;5034907;28;20037;-62
2021/09/02 03:34:58;;;;;;;6.03;3.60;;;;;;;20.39;59.79;102693.72;5034787;28;20022;-61
2021/09/02 03:37:23;;;;;;;5.80;3.20;;;;;;;20.40;59.87;102698.94;5034269;28;20527;-62
2021/09/02 03:39:49;;;;;;;5.85;3.30;;;;;;;20.38;59.85;102697.34;5034747;28;20080;-62
2021/09/02 03:42:14;;;;;;;6.47;3.45;;;;;;;20.40;60.01;102704.22;5035135;28;20109;-62
2021/09/02 03:44:39;;;;;;;6.78;3.20;;;;;;;20.40;59.75;102690.16;5034103;28;20380;-62
2021/09/02 03:47:04;;;;;;;6.13;3.50;;;;;;;20.37;59.71;102693.81;5034994;28;20017;-62
2021/09/02 03:49:30;;;;;;;5.75;3.25;;;;;;;20.34;59.61;102686.06;5034823;28;20294;-62
2021/09/02 03:51:55;;;;;;;6.07;3.30;;;;;;;20.39;59.82;102681.34;5033686;28;20029;-62
2021/09/02 03:54:20;;;;;;;6.20;3.60;;;;;;;20.35;59.61;102676.34;5034880;28;20055;-62
2021/09/02 03:56:45;;;;;;;7.38;3.67;;;;;;;20.39;59.71;102675.19;5034711;28;20739;-62
2021/09/02 03:59:11;;;;;;;6.75;3.45;;;;;;;20.39;59.75;102680.50;5033560;28;20083;-62
2021/09/02 04:01:36;;;;;;;5.83;3.53;;;;;;;20.38;59.99;102677.00;5034433;28;20394;-62
2021/09/02 04:04:01;;;;;;;6.00;3.50;;;;;;;20.38;59.65;102676.16;5034716;28;20294;-62
2021/09/02 04:06:29;;;;;;;5.35;3.55;;;;;;;20.35;59.85;102668.41;5034193;28;20474;-62
2021/09/02 04:08:55;;;;;;;7.22;3.47;;;;;;;20.37;59.65;102672.63;5034375;28;20025;-64
2021/09/02 04:11:20;;;;;;;6.28;3.55;;;;;;;20.35;59.71;102669.25;5035013;28;20043;-62
2021/09/02 04:13:48;;;;;;;5.05;3.08;;;;;;;20.37;59.76;102662.06;5033715;28;20502;-63
2021/09/02 04:16:13;;;;;;;7.25;3.42;;;;;;;20.37;59.58;102663.84;5034874;28;20036;-62
2021/09/02 04:18:41;;;;;;;5.68;3.45;;;;;;;20.37;59.71;102666.50;5034189;28;20029;-62
2021/09/02 04:21:07;;;;;;;5.22;3.30;;;;;;;20.35;59.47;102656.00;5033476;28;20097;-62
2021/09/02 04:23:33;;;;;;;8.50;3.42;;;;;;;20.36;59.78;102655.06;5034830;28;20044;-63
2021/09/02 04:25:59;;;;;;;6.78;3.63;;;;;;;20.36;59.76;102660.38;5034095;28;20032;-64
2021/09/02 04:28:25;;;;;;;6.72;3.60;;;;;;;20.35;59.55;102652.53;5033618;28;20033;-63
2021/09/02 04:30:50;;;;;;;6.45;3.78;;;;;;;20.36;59.52;102667.44;5034346;28;20017;-63
2021/09/02 04:33:16;;;;;;;5.68;3.38;;;;;;;20.34;59.62;102666.69;5034237;28;20070;-63
2021/09/02 04:35:41;;;;;;;6.63;3.55;;;;;;;20.36;59.52;102670.97;5033558;28;20392;-62
2021/09/02 04:38:06;;;;;;;7.70;3.50;;;;;;;20.30;59.48;102656.28;5033400;28;20037;-62
2021/09/02 04:40:31;;;;;;;6.80;3.58;;;;;;;20.34;59.59;102667.53;5033177;28;20611;-62
2021/09/02 04:42:57;;;;;;;5.72;3.33;;;;;;;20.34;59.65;102667.53;5033386;28;20022;-62
2021/09/02 04:45:22;;;;;;;5.55;3.35;;;;;;;20.30;59.47;102661.59;5033613;28;20017;-63
2021/09/02 04:47:50;;;;;;;6.00;3.42;;;;;;;20.34;59.48;102666.69;5032680;28;20036;-63
2021/09/02 04:50:15;;;;;;;5.70;3.67;;;;;;;20.35;59.32;102668.41;5033683;28;20033;-61
2021/09/02 04:52:40;;;;;;;5.72;3.40;;;;;;;20.30;59.51;102666.88;5033356;28;20068;-63
2021/09/02 04:55:06;;;;;;;6.32;3.40;;;;;;;20.33;59.47;102671.16;5032268;28;20029;-62
2021/09/02 04:57:32;;;;;;;5.95;3.60;;;;;;;20.33;59.54;102673.78;5033174;28;20017;-62
2021/09/02 04:59:57;;;;;;;6.17;3.30;;;;;;;20.32;59.69;102671.25;5032805;28;20064;-62
2021/09/02 05:02:22;;;;;;;6.37;3.60;;;;;;;20.32;59.31;102661.50;5032571;28;20682;-61
2021/09/02 05:04:47;;;;;;;6.88;3.80;;;;;;;20.26;59.17;102649.47;5032699;28;20274;-62
2021/09/02 05:07:13;;;;;;;7.47;3.70;;;;;;;20.32;59.45;102668.59;5033068;28;20029;-62
2021/09/02 05:09:38;;;;;;;5.78;3.05;;;;;;;20.31;59.30;102662.44;5032208;28;20025;-61
2021/09/02 05:12:04;;;;;;;6.50;3.75;;;;;;;20.32;59.18;102658.84;5032717;28;20022;-62
2021/09/02 05:14:29;;;;;;;6.03;3.42;;;;;;;20.30;59.28;102653.66;5032826;28;20030;-61
2021/09/02 05:16:55;;;;;;;6.55;3.50;;;;;;;20.29;59.33;102654.56;5032220;28;20041;-62
2021/09/02 05:19:20;;;;;;;6.78;3.42;;;;;;;20.30;59.31;102652.81;5033033;28;20030;-62
2021/09/02 05:21:45;;;;;;;6.85;3.38;;;;;;;20.28;59.23;102655.53;5032949;28;20025;-62
2021/09/02 05:24:10;;;;;;;5.57;3.40;;;;;;;20.30;59.26;102658.94;5031613;28;20108;-62
2021/09/02 05:26:36;;;;;;;5.25;3.17;;;;;;;20.29;59.23;102659.03;5032643;28;20313;-62
2021/09/02 05:29:01;;;;;;;5.43;3.38;;;;;;;20.29;59.09;102654.56;5032120;28;20036;-62
2021/09/02 05:31:27;;;;;;;8.18;3.55;;;;;;;20.29;59.23;102662.53;5031094;28;20048;-63
2021/09/02 05:33:52;;;;;;;5.22;3.35;;;;;;;20.29;59.07;102665.16;5032117;28;20021;-63
2021/09/02 05:36:18;;;;;;;5.82;3.30;;;;;;;20.27;59.23;102661.78;5032626;28;20021;-63
2021/09/02 05:38:43;;;;;;;7.70;3.50;;;;;;;20.30;59.01;102673.97;5031612;28;20017;-63
2021/09/02 05:41:09;;;;;;;5.38;3.25;;;;;;;20.29;59.03;102669.63;5032245;28;20036;-62
2021/09/02 05:43:37;;;;;;;6.95;3.35;;;;;;;20.28;59.07;102679.38;5032301;28;20021;-64
2021/09/02 05:46:03;;;;;;;7.45;3.60;;;;;;;20.27;59.09;102668.88;5032177;28;20029;-63
2021/09/02 05:48:31;;;;;;;7.32;3.17;;;;;;;20.27;59.24;102660.94;5032401;28;20083;-63
2021/09/02 05:50:56;;;;;;;6.20;3.40;;;;;;;20.23;59.17;102665.53;5031654;28;20041;-62
2021/09/02 05:53:22;;;;;;;7.60;3.35;;;;;;;20.29;59.32;102680.22;5032186;28;20111;-62
2021/09/02 05:55:50;;;;;;;7.18;3.55;;;;;;;20.28;59.33;102675.84;5032025;28;20021;-62
2021/09/02 05:58:16;;;;;;;5.97;3.15;;;;;;;20.28;59.36;102679.38;5031464;28;20025;-63
2021/09/02 06:00:41;;;;;;;7.53;3.55;;;;;;;20.29;59.28;102686.34;5032390;28;20052;-62
2021/09/02 06:03:06;;;;;;;6.03;3.00;;;;;;;20.29;59.30;102678.41;5036241;28;20372;-63
2021/09/02 06:05:32;;;;;;;5.25;3.10;;;;;;;20.29;59.24;102680.22;5035067;28;20032;-62
2021/09/02 06:07:57;;;;;;;6.38;3.50;;;;;;;20.28;59.45;102684.66;5036302;28;20025;-62
2021/09/02 06:10:25;;;;;;;6.70;3.15;;;;;;;20.28;59.31;102682.03;5035657;28;20374;-62
2021/09/02 06:12:51;;;;;;;5.75;3.28;;;;;;;20.31;59.43;102683.59;5035141;28;20034;-62
2021/09/02 06:15:16;;;;;;;5.78;3.30;;;;;;;20.30;59.52;102681.94;5037230;28;20189;-62
2021/09/02 06:17:41;;;;;;;6.90;3.33;;;;;;;20.30;59.47;102684.56;5036662;28;20033;-61
2021/09/02 06:20:08;;;;;;;6.50;3.10;;;;;;;20.33;59.54;102680.88;5035143;28;20454;-62
2021/09/02 06:22:34;;;;;;;6.13;3.30;;;;;;;20.33;59.71;102678.22;5032333;28;20030;-62
2021/09/02 06:25:00;;;;;;;7.55;3.00;;;;;;;20.37;59.92;102682.41;5032438;28;20171;-62
2021/09/02 06:27:26;;;;;;;5.95;3.03;;;;;;;20.38;59.84;102684.94;5031740;28;20201;-61
2021/09/02 06:29:52;;;;;;;6.28;2.95;;;;;;;20.37;59.90;102677.94;5031804;28;20029;-62
2021/09/02 06:32:20;;;;;;;6.50;3.20;;;;;;;20.41;59.63;102682.09;5031988;28;20022;-62
2021/09/02 06:34:45;;;;;;;6.35;2.72;;;;;;;20.41;59.77;102689.19;5031389;28;20123;-61
2021/09/02 06:37:13;;;;;;;5.78;2.95;;;;;;;20.43;59.71;102688.16;5031728;28;20450;-61
2021/09/02 06:39:38;;;;;;;6.18;3.20;;;;;;;20.43;59.73;102692.59;5032013;28;20104;-60
2021/09/02 06:42:03;;;;;;;6.50;3.40;;;;;;;20.45;59.62;102696.00;5031960;28;20116;-61
2021/09/02 06:44:29;;;;;;;5.72;2.92;;;;;;;20.46;59.71;102685.31;5035800;28;20033;-64
2021/09/02 06:46:54;;;;;;;6.78;3.25;;;;;;;20.42;59.67;102680.31;5035445;28;20034;-65
2021/09/02 06:49:20;;;;;;;9.82;3.15;;;;;;;20.48;59.65;102691.34;5035333;28;20025;-62
2021/09/02 06:51:46;;;;;;;7.72;3.85;;;;;;;20.50;59.60;102696.56;5035870;28;20030;-62
2021/09/02 06:54:12;;;;;;;7.03;3.20;;;;;;;20.46;59.51;102681.81;5034424;28;20041;-61
2021/09/02 06:56:37;;;;;;;8.93;3.38;;;;;;;20.48;59.33;102686.06;5035666;28;20457;-61
2021/09/02 06:59:05;;;;;;;5.90;3.42;;;;;;;20.47;59.26;102688.81;5035593;28;20021;-65
2021/09/02 07:01:30;;;;;;;8.10;3.53;;;;;;;20.44;59.37;102684.56;5035108;28;20037;-62
2021/09/02 07:03:56;;;;;;;7.22;3.70;;;;;;;20.46;59.41;102689.78;5035241;28;20028;-62
2021/09/02 07:06:21;;;;;;;7.55;3.75;;;;;;;20.45;59.45;102688.06;5035495;28;20018;-64
2021/09/02 07:08:46;;;;;;;6.63;2.80;;;;;;;20.47;59.63;102694.09;5034657;28;20125;-63
2021/09/02 07:11:12;;;;;;;6.55;3.25;;;;;;;20.48;59.76;102695.81;5035271;28;20406;-62
2021/09/02 07:13:37;;;;;;;8.80;3.42;;;;;;;20.51;59.94;102700.91;5035520;28;20025;-63
2021/09/02 07:16:04;;;;;;;6.30;3.30;;;;;;;20.51;59.79;102689.50;5034198;28;20044;-63
2021/09/02 07:18:29;;;;;;;6.50;3.10;;;;;;;20.50;60.03;102685.97;5035413;28;20275;-62
2021/09/02 07:20:54;;;;;;;9.75;3.20;;;;;;;20.55;60.21;102691.81;5034853;28;20023;-64
2021/09/02 07:23:19;;;;;;;6.93;3.25;;;;;;;20.56;60.13;102695.34;5034468;28;20018;-63
2021/09/02 07:25:48;;;;;;;10.03;3.20;;;;;;;20.56;60.27;102698.81;5035091;28;20018;-64
2021/09/02 07:28:14;;;;;;;6.82;3.40;;;;;;;20.57;60.20;102699.66;5035172;28;20289;-63
2021/09/02 07:30:43;;;;;;;7.60;3.83;;;;;;;20.58;60.37;102701.38;5034336;28;20088;-65
2021/09/02 07:33:09;;;;;;;9.18;3.67;;;;;;;20.58;60.33;102704.03;5034541;28;20473;-63
2021/09/02 07:35:34;;;;;;;7.53;3.20;;;;;;;20.60;60.38;102708.31;5034900;28;20036;-64
2021/09/02 07:37:59;;;;;;;7.22;3.33;;;;;;;20.61;60.35;102714.44;5033765;28;20076;-62
2021/09/02 07:40:25;;;;;;;8.13;3.42;;;;;;;20.61;60.28;102709.97;5034696;28;20386;-64
2021/09/02 07:42:50;;;;;;;8.30;3.20;;;;;;;20.63;60.31;102716.06;5034594;28;20366;-64
2021/09/02 07:45:28;;;;;;;7.22;3.22;;;;;;;20.64;60.40;102709.81;5034187;28;20022;-66
2021/09/02 07:47:55;;;;;;;7.97;3.17;;;;;;;20.65;60.53;102706.22;5034292;28;20025;-63
2021/09/02 07:50:21;;;;;;;7.05;3.50;;;;;;;20.67;60.59;102703.50;5033905;28;20128;-64
2021/09/02 07:52:49;;;;;;;8.65;3.67;;;;;;;20.68;60.66;102699.91;5034218;28;20152;-64
2021/09/02 07:55:15;;;;;;;7.65;2.90;;;;;;;20.71;60.64;102701.50;5033899;28;20053;-64
2021/09/02 07:57:46;;;;;;;6.25;3.40;;;;;;;20.71;60.77;102702.38;5033785;28;20025;-62
2021/09/02 08:00:18;;;;;;;11.07;3.63;;;;;;;20.73;60.65;102704.88;5034221;28;20083;-65
2021/09/02 08:02:45;;;;;;;7.60;3.03;;;;;;;20.72;60.67;102700.56;5034371;28;20052;-61
2021/09/02 08:05:11;;;;;;;10.18;3.40;;;;;;;20.75;60.52;102709.16;5033281;28;20030;-62
2021/09/02 08:07:55;;;;;;;7.88;3.05;;;;;;;20.75;60.39;102705.66;5034431;28;20025;-60
2021/09/02 08:10:22;;;;;;;8.32;3.72;;;;;;;20.76;60.37;102702.03;5034390;28;20374;-64
2021/09/02 08:12:48;;;;;;;6.70;3.15;;;;;;;20.77;60.36;102709.06;5033121;28;20026;-61
2021/09/02 08:15:14;;;;;;;7.03;3.30;;;;;;;20.79;60.38;102709.81;5034389;28;20033;-64
2021/09/02 08:17:40;;;;;;;6.93;3.17;;;;;;;20.80;60.46;102706.22;5034023;28;20025;-63
2021/09/02 08:20:09;;;;;;;6.07;3.38;;;;;;;20.78;60.38;102694.88;5033181;28;20057;-63
2021/09/02 08:22:35;;;;;;;8.43;2.70;;;;;;;20.81;60.31;102702.63;5034162;28;20457;-63
2021/09/02 08:25:01;;;;;;;7.10;3.33;;;;;;;20.80;60.07;102701.75;5033729;28;20025;-64
2021/09/02 08:27:26;;;;;;;8.68;3.42;;;;;;;20.78;60.03;102695.72;5033144;28;20496;-63
2021/09/02 08:29:51;;;;;;;6.35;2.92;;;;;;;20.78;60.01;102701.00;5033577;28;20036;-62
2021/09/02 08:32:16;;;;;;;6.45;2.83;;;;;;;20.77;60.01;102693.16;5033638;28;20029;-62
2021/09/02 08:34:42;;;;;;;7.95;3.10;;;;;;;20.77;60.06;102694.00;5033268;28;20032;-62
2021/09/02 08:37:07;;;;;;;8.45;3.13;;;;;;;20.75;59.91;102698.56;5033573;28;20037;-62
2021/09/02 08:39:32;;;;;;;7.38;2.97;;;;;;;20.75;59.82;102701.19;5033048;28;20030;-63
2021/09/02 08:41:58;;;;;;;6.95;3.25;;;;;;;20.74;60.11;102694.19;5033311;28;20084;-63
2021/09/02 08:44:24;;;;;;;6.07;3.10;;;;;;;20.67;59.85;102682.31;5033615;28;20029;-62
2021/09/02 08:46:50;;;;;;;5.80;3.10;;;;;;;20.75;59.97;102703.00;5032530;28;20141;-62
2021/09/02 08:49:20;;;;;;;7.90;3.38;;;;;;;20.76;59.77;102696.75;5033574;28;20112;-62
2021/09/02 08:51:47;;;;;;;8.07;3.13;;;;;;;20.75;59.76;102706.50;5033485;28;20032;-62
2021/09/02 08:54:13;;;;;;;6.68;2.72;;;;;;;20.75;59.73;102706.50;5032583;28;20045;-63
2021/09/02 08:56:39;;;;;;;4.97;2.60;;;;;;;20.74;59.36;102704.78;5033652;28;20025;-63
2021/09/02 08:59:05;;;;;;;5.88;2.70;;;;;;;20.73;59.57;102703.09;5033047;28;20038;-63
2021/09/02 09:01:30;;;;;;;7.32;2.95;;;;;;;20.75;59.62;102711.81;5032413;28;20037;-63
2021/09/02 09:03:56;;;;;;;6.20;3.20;;;;;;;20.75;59.37;102709.16;5032923;28;20029;-62
2021/09/02 09:06:28;;;;;;;7.22;3.42;;;;;;;20.75;59.69;102710.97;5033033;28;20037;-63
2021/09/02 09:08:55;;;;;;;5.25;2.90;;;;;;;20.71;59.64;102704.16;5032224;28;20171;-63
2021/09/02 09:11:24;;;;;;;7.80;3.20;;;;;;;20.68;59.65;102694.59;5033044;28;20025;-63
2021/09/02 09:14:12;;;;;;;5.78;2.40;;;;;;;20.75;59.57;102703.84;5032615;28;20079;-63
2021/09/02 09:16:45;;;;;;;8.02;3.22;;;;;;;20.74;59.61;102702.13;5032227;28;20516;-63
2021/09/02 09:19:38;;;;;;;5.78;3.00;;;;;;;20.75;59.48;102700.38;5032666;28;20535;-62
2021/09/02 09:22:09;;;;;;;6.45;3.05;;;;;;;20.75;59.50;102700.38;5031746;28;20038;-62
2021/09/02 09:24:48;;;;;;;7.15;2.80;;;;;;;20.76;59.27;102704.69;5032412;28;20100;-63
2021/09/02 09:27:15;;;;;;;6.03;2.70;;;;;;;20.75;59.43;102693.25;5032403;28;20030;-63
2021/09/02 09:29:41;;;;;;;6.03;2.97;;;;;;;20.76;59.43;102696.75;5031915;28;20030;-63
2021/09/02 09:32:15;;;;;;;6.20;2.90;;;;;;;20.76;59.40;102696.75;5032102;28;20385;-62
2021/09/02 09:34:51;;;;;;;5.32;2.72;;;;;;;20.77;59.11;102690.50;5032310;28;20108;-63
2021/09/02 09:37:21;;;;;;;7.53;2.70;;;;;;;20.78;59.32;102697.53;5031723;28;20466;-63
2021/09/02 09:39:48;;;;;;;6.15;3.40;;;;;;;20.78;59.37;102692.22;5032365;28;20393;-63
2021/09/02 09:42:17;;;;;;;5.65;2.97;;;;;;;20.77;59.25;102688.69;5032652;28;20021;-63
2021/09/02 09:44:42;;;;;;;5.25;2.58;;;;;;;20.78;59.33;102692.22;5031842;28;20029;-63
2021/09/02 09:47:17;;;;;;;5.32;2.47;;;;;;;20.78;59.26;102689.56;5032194;28;20035;-64
2021/09/02 09:50:02;;;;;;;6.07;2.88;;;;;;;20.79;59.33;102688.59;5032628;28;20040;-63
2021/09/02 09:52:30;;;;;;;7.70;3.22;;;;;;;20.79;59.25;102691.25;5032329;28;20109;-63
2021/09/02 09:55:12;;;;;;;6.20;2.55;;;;;;;20.81;59.28;102689.38;5032134;28;20030;-63
2021/09/02 09:57:40;;;;;;;6.18;3.15;;;;;;;20.81;59.18;102686.72;5031422;28;20337;-62
2021/09/02 10:00:19;;;;;;;5.95;2.97;;;;;;;20.81;58.98;102686.72;5032199;28;20022;-63
2021/09/02 10:02:50;;;;;;;6.55;3.00;;;;;;;20.82;58.88;102688.41;5032251;28;20021;-62
2021/09/02 10:05:18;;;;;;;5.88;3.00;;;;;;;20.81;58.81;102689.38;5031533;28;20040;-64
2021/09/02 10:07:45;;;;;;;6.78;2.92;;;;;;;20.80;59.01;102687.66;5032418;28;20107;-63
2021/09/02 10:10:14;;;;;;;6.03;3.03;;;;;;;20.81;58.56;102686.72;5031695;28;20112;-63
2021/09/02 10:12:42;;;;;;;5.65;3.38;;;;;;;20.79;58.78;102689.47;5031754;28;20040;-62
2021/09/02 10:15:11;;;;;;;5.32;2.55;;;;;;;20.80;58.88;102688.50;5032293;28;20113;-63
2021/09/02 10:17:38;;;;;;;4.80;2.70;;;;;;;20.78;59.19;102684.28;5036243;28;20105;-63
2021/09/02 10:20:09;;;;;;;7.35;3.30;;;;;;;20.79;59.10;102675.34;5037857;28;20032;-62
2021/09/02 10:22:35;;;;;;;5.95;2.90;;;;;;;20.80;59.19;102682.38;5038642;28;20022;-63
2021/09/02 10:25:01;;;;;;;7.47;3.30;;;;;;;20.79;58.71;102678.00;5037564;28;20026;-63
2021/09/02 10:27:26;;;;;;;6.47;3.28;;;;;;;20.79;58.71;102681.53;5038815;28;20087;-63
2021/09/02 10:29:53;;;;;;;5.35;2.78;;;;;;;20.79;58.79;102676.22;5038566;28;20041;-62
2021/09/02 10:32:22;;;;;;;5.53;2.80;;;;;;;20.82;58.68;102672.50;5038072;28;20239;-63
2021/09/02 10:34:51;;;;;;;7.07;3.10;;;;;;;20.83;58.61;102669.75;5038362;28;20068;-63
2021/09/02 10:37:35;;;;;;;5.78;3.28;;;;;;;20.84;58.64;102679.44;5038634;28;20025;-63
2021/09/02 10:40:02;;;;;;;5.60;2.90;;;;;;;20.83;58.70;102669.75;5037732;28;20055;-63
2021/09/02 10:42:58;;;;;;;5.05;2.63;;;;;;;20.86;58.78;102667.88;5038878;28;20035;-66
2021/09/02 10:45:34;;;;;;;5.07;2.65;;;;;;;20.86;58.91;102659.94;5040076;28;20121;-66
2021/09/02 10:48:02;;;;;;;6.60;2.95;;;;;;;20.88;58.60;102666.81;5039179;28;20033;-67
2021/09/02 10:50:34;;;;;;;7.38;2.95;;;;;;;20.89;58.96;102652.63;5040212;28;20045;-68
2021/09/02 10:53:16;;;;;;;7.40;4.47;;;;;;;20.90;58.77;102658.78;5038719;28;20084;-63
2021/09/02 10:55:47;;;;;;;18.17;16.45;;;;;;;20.92;59.05;102649.78;5039219;28;20504;-64
2021/09/02 10:58:39;;;;;;;21.17;19.05;;;;;;;20.95;59.12;102651.38;5039651;28;20025;-63
2021/09/02 11:01:22;;;;;;;21.45;19.33;;;;;;;20.98;59.35;102657.34;5037798;28;20034;-64
2021/09/02 11:03:49;;;;;;;20.60;18.70;;;;;;;20.99;59.49;102651.06;5038834;28;20104;-62
2021/09/02 11:06:15;;;;;;;21.30;19.25;;;;;;;21.01;59.62;102646.53;5038591;28;20670;-63
2021/09/02 11:08:44;;;;;;;22.90;20.33;;;;;;;21.05;59.82;102651.66;5037910;28;20064;-63
2021/09/02 11:11:09;;;;;;;21.65;19.52;;;;;;;21.06;59.70;102643.59;5038704;28;20021;-64
2021/09/02 11:13:34;;;;;;;22.47;19.33;;;;;;;21.08;59.79;102649.63;5039051;28;20087;-62
2021/09/02 11:16:11;;;;;;;21.08;18.95;;;;;;;21.09;59.92;102647.81;5037570;28;20032;-62
2021/09/02 11:18:43;;;;;;;20.25;18.13;;;;;;;21.07;59.87;102639.13;5038676;28;20029;-63
2021/09/02 11:21:15;;;;;;;19.40;17.50;;;;;;;21.10;59.73;102645.06;5038322;28;20387;-64
2021/09/02 11:23:41;;;;;;;18.42;16.63;;;;;;;21.10;59.80;102639.78;5038514;28;20027;-64
2021/09/02 11:26:07;;;;;;;18.63;16.73;;;;;;;21.10;59.88;102639.78;5038776;28;20025;-64